Time;durP1;ratioP1;P1;durP2;ratioP2;P2;SDS_P1;SDS_P2;PMS_P1;PMS_P2;Temp;Humidity;BMP_temperature;BMP_pressure;BME280_temperature;BME280_humidity;BME280_pressure;Samples;Min_cycle;Max_cycle;Signal;HPM_P1;HPM_P2
2023/11/15 00:02:51;;;;;;;;;;;10.50;99.90;;;;;;21072147;28;19916;-84
2023/11/15 00:12:51;;;;;;;;;;;10.50;99.90;;;;;;21078677;28;19912;-81
2023/11/15 00:22:52;;;;;;;;;;;10.40;99.90;;;;;;21079259;28;19939;-82
2023/11/15 00:32:53;;;;;;;;;;;10.50;99.90;;;;;;21088504;28;19916;-81
2023/11/15 00:42:54;;;;;;;;;;;10.50;99.90;;;;;;21048726;28;19916;-82
2023/11/15 00:52:55;;;;;;;;;;;10.50;99.90;;;;;;21002365;28;20336;-84
2023/11/15 01:02:57;;;;;;;;;;;10.50;99.90;;;;;;21129749;28;20224;-84
2023/11/15 01:13:00;;;;;;;;;;;10.60;99.90;;;;;;21102944;28;19967;-83
2023/11/15 01:23:02;;;;;;;;;;;10.60;99.90;;;;;;21123615;28;19916;-84
2023/11/15 01:33:03;;;;;;;;;;;10.50;99.90;;;;;;21149494;28;19922;-81
2023/11/15 01:43:04;;;;;;;;;;;10.30;99.90;;;;;;21115468;28;19947;-82
2023/11/15 01:53:05;;;;;;;;;;;10.30;99.90;;;;;;21080020;28;19935;-82
2023/11/15 02:03:05;;;;;;;;;;;10.30;99.90;;;;;;21078317;28;19951;-81
2023/11/15 02:13:22;;;;;;;;;;;10.20;99.90;;;;;;21099395;28;19919;-81
2023/11/15 02:23:23;;;;;;;;;;;10.10;99.90;;;;;;21092283;28;20348;-81
2023/11/15 02:33:24;;;;;;;;;;;10.00;99.90;;;;;;21107016;28;20383;-84
2023/11/15 02:43:25;;;;;;;;;;;9.90;99.90;;;;;;21133122;28;20325;-83
2023/11/15 02:53:25;;;;;;;;;;;9.60;99.90;;;;;;21109037;28;19919;-83
2023/11/15 03:03:26;;;;;;;;;;;9.30;99.90;;;;;;21148060;28;20371;-83
2023/11/15 03:13:27;;;;;;;;;;;9.10;99.90;;;;;;21112364;28;20332;-83
2023/11/15 03:23:27;;;;;;;;;;;9.00;99.90;;;;;;21157839;28;19961;-82
2023/11/15 03:33:28;;;;;;;;;;;9.00;99.90;;;;;;21125813;28;19913;-80
2023/11/15 03:43:29;;;;;;;;;;;9.10;99.90;;;;;;21090199;28;19923;-84
2023/11/15 03:53:30;;;;;;;;;;;9.00;99.90;;;;;;21107624;28;19913;-84
2023/11/15 04:03:30;;;;;;;;;;;8.70;99.90;;;;;;21068240;28;19916;-82
2023/11/15 04:13:33;;;;;;;;;;;8.70;99.90;;;;;;21051537;28;20502;-83
2023/11/15 04:23:34;;;;;;;;;;;8.60;99.90;;;;;;21088474;28;19923;-81
2023/11/15 04:33:35;;;;;;;;;;;8.70;99.90;;;;;;21079909;28;19916;-80
2023/11/15 04:43:36;;;;;;;;;;;8.60;99.90;;;;;;21073818;28;20379;-82
2023/11/15 04:53:37;;;;;;;;;;;8.50;99.90;;;;;;21106095;27;19964;-83
2023/11/15 05:03:38;;;;;;;;;;;8.80;99.90;;;;;;21100808;28;19923;-80
2023/11/15 05:13:38;;;;;;;;;;;8.80;99.90;;;;;;21046016;28;20012;-84
2023/11/15 05:23:39;;;;;;;;;;;8.80;99.90;;;;;;21073146;28;19916;-81
2023/11/15 05:33:40;;;;;;;;;;;8.80;99.90;;;;;;21082637;28;19947;-82
2023/11/15 05:43:41;;;;;;;;;;;8.60;99.90;;;;;;21094787;28;19916;-82
2023/11/15 05:53:43;;;;;;;;;;;8.60;99.90;;;;;;21063714;28;19912;-81
2023/11/15 06:03:46;;;;;;;;;;;8.60;99.90;;;;;;21143539;28;19920;-81
2023/11/15 06:13:46;;;;;;;;;;;8.80;99.90;;;;;;21091617;28;20398;-81
2023/11/15 06:23:47;;;;;;;;;;;8.90;99.90;;;;;;21061153;28;20302;-80
2023/11/15 06:33:48;;;;;;;;;;;8.90;99.90;;;;;;21064152;28;19913;-81
2023/11/15 06:43:49;;;;;;;;;;;8.90;99.90;;;;;;21077259;28;19969;-81
2023/11/15 06:53:50;;;;;;;;;;;8.90;99.90;;;;;;21084889;28;20455;-81
2023/11/15 07:03:51;;;;;;;;;;;8.90;99.90;;;;;;21161457;28;19916;-81
2023/11/15 07:13:52;;;;;;;;;;;8.90;99.90;;;;;;21143394;28;19919;-81
2023/11/15 07:23:54;;;;;;;;;;;9.00;99.90;;;;;;21071780;28;19916;-80
2023/11/15 07:33:56;;;;;;;;;;;9.00;99.90;;;;;;21082434;28;19912;-79
2023/11/15 07:43:58;;;;;;;;;;;9.00;99.90;;;;;;21089619;28;19916;-81
2023/11/15 07:53:58;;;;;;;;;;;9.20;99.90;;;;;;21090700;28;19959;-81
2023/11/15 08:04:01;;;;;;;;;;;9.20;99.90;;;;;;21087180;28;19965;-83
2023/11/15 08:14:05;;;;;;;;;;;9.30;99.90;;;;;;21094566;28;19912;-80
2023/11/15 08:24:08;;;;;;;;;;;9.50;99.90;;;;;;21067553;28;19920;-82
2023/11/15 08:34:10;;;;;;;;;;;9.50;99.90;;;;;;21057020;28;19966;-83
2023/11/15 08:44:11;;;;;;;;;;;9.60;99.90;;;;;;21089848;28;19969;-82
2023/11/15 08:54:11;;;;;;;;;;;9.90;99.90;;;;;;21096574;28;19912;-79
2023/11/15 09:04:15;;;;;;;;;;;10.00;99.90;;;;;;21085283;28;20284;-79
2023/11/15 09:14:16;;;;;;;;;;;9.90;99.90;;;;;;21052409;28;19912;-80
2023/11/15 09:24:18;;;;;;;;;;;9.90;99.90;;;;;;21065850;28;19916;-80
2023/11/15 09:34:18;;;;;;;;;;;9.90;99.90;;;;;;21083785;28;20007;-82
2023/11/15 09:44:23;;;;;;;;;;;9.80;99.90;;;;;;21013284;28;19916;-82
2023/11/15 09:54:24;;;;;;;;;;;9.90;99.90;;;;;;20999697;28;20355;-81
2023/11/15 10:04:25;;;;;;;;;;;9.80;99.90;;;;;;21078822;28;20306;-81
2023/11/15 10:14:29;;;;;;;;;;;10.90;99.90;;;;;;21106878;28;19919;-81
2023/11/15 10:24:31;;;;;;;;;;;10.60;99.90;;;;;;21101151;28;19916;-81
2023/11/15 10:34:32;;;;;;;;;;;10.60;99.90;;;;;;21080554;28;19920;-82
2023/11/15 10:44:36;;;;;;;;;;;10.40;99.90;;;;;;21067396;28;19916;-82
2023/11/15 10:54:38;;;;;;;;;;;10.70;99.90;;;;;;21144191;28;20377;-82
2023/11/15 11:04:39;;;;;;;;;;;12.30;99.90;;;;;;21123512;28;19916;-85
2023/11/15 11:14:40;;;;;;;;;;;11.60;99.90;;;;;;21086029;28;19935;-83
2023/11/15 11:24:48;;;;;;;;;;;10.30;99.90;;;;;;21099097;28;19923;-85
2023/11/15 11:35:07;;;;;;;;;;;9.70;99.90;;;;;;21021233;28;19969;-82
2023/11/15 11:45:09;;;;;;;;;;;9.70;99.90;;;;;;21093101;28;19923;-82
2023/11/15 11:55:11;;;;;;;;;;;9.60;99.90;;;;;;21067042;28;19919;-83
2023/11/15 12:05:12;;;;;;;;;;;9.40;99.90;;;;;;21092593;28;19916;-80
2023/11/15 12:15:13;;;;;;;;;;;9.40;99.90;;;;;;21083023;28;19912;-82
2023/11/15 12:25:14;;;;;;;;;;;9.30;99.90;;;;;;21079665;28;19920;-83
2023/11/15 12:35:15;;;;;;;;;;;9.40;99.90;;;;;;21087027;28;19920;-82
2023/11/15 12:45:31;;;;;;;;;;;10.60;99.90;;;;;;21084733;28;19924;-84
2023/11/15 12:55:55;;;;;;;;;;;11.30;99.90;;;;;;21093958;28;20418;-85
2023/11/15 13:06:11;;;;;;;;;;;10.70;99.90;;;;;;21095486;28;19955;-84
2023/11/15 13:16:15;;;;;;;;;;;10.90;99.90;;;;;;21060244;28;19912;-86
2023/11/15 13:26:15;;;;;;;;;;;11.00;99.90;;;;;;21127003;28;19915;-83
2023/11/15 13:36:17;;;;;;;;;;;10.80;99.90;;;;;;21152481;28;19916;-83
2023/11/15 13:46:21;;;;;;;;;;;11.40;99.90;;;;;;21046685;28;19923;-82
2023/11/15 13:56:24;;;;;;;;;;;11.00;99.90;;;;;;21100762;28;20305;-82
2023/11/15 14:06:25;;;;;;;;;;;10.70;99.90;;;;;;21081728;28;19935;-85
2023/11/15 14:16:25;;;;;;;;;;;11.30;99.90;;;;;;21089695;28;19934;-83
2023/11/15 14:26:27;;;;;;;;;;;11.50;99.90;;;;;;21051407;28;19958;-86
2023/11/15 14:36:28;;;;;;;;;;;10.80;99.90;;;;;;21042772;28;19916;-81
2023/11/15 14:46:30;;;;;;;;;;;10.90;99.90;;;;;;21069327;28;19950;-83
2023/11/15 14:56:32;;;;;;;;;;;10.80;99.90;;;;;;21090900;28;19912;-81
2023/11/15 15:06:32;;;;;;;;;;;11.30;99.90;;;;;;21092042;28;19918;-82
2023/11/15 15:16:33;;;;;;;;;;;11.40;99.90;;;;;;21039457;28;19912;-83
2023/11/15 15:26:34;;;;;;;;;;;10.60;99.90;;;;;;21075789;28;20125;-82
2023/11/15 15:36:35;;;;;;;;;;;10.50;99.90;;;;;;21090600;28;19924;-81
2023/11/15 15:46:36;;;;;;;;;;;10.30;99.90;;;;;;21114775;28;19918;-83
2023/11/15 15:56:37;;;;;;;;;;;10.10;99.90;;;;;;21081864;28;19912;-81
2023/11/15 16:06:37;;;;;;;;;;;10.00;99.90;;;;;;21090463;28;19912;-83
2023/11/15 16:16:38;;;;;;;;;;;9.90;99.90;;;;;;21089494;28;20317;-84
2023/11/15 16:26:39;;;;;;;;;;;9.90;99.90;;;;;;21089001;28;19947;-82
2023/11/15 16:36:40;;;;;;;;;;;9.80;99.90;;;;;;21064133;28;20338;-83
2023/11/15 16:46:41;;;;;;;;;;;9.80;99.90;;;;;;21086637;28;20442;-82
2023/11/15 16:56:48;;;;;;;;;;;9.70;99.90;;;;;;21072861;28;20309;-82
2023/11/15 17:06:48;;;;;;;;;;;9.60;99.90;;;;;;21087698;28;19912;-83
2023/11/15 17:16:49;;;;;;;;;;;9.50;99.90;;;;;;21069695;28;19927;-82
2023/11/15 17:26:50;;;;;;;;;;;9.50;99.90;;;;;;21066516;28;19912;-82
2023/11/15 17:36:52;;;;;;;;;;;9.40;99.90;;;;;;21065181;28;19923;-82
2023/11/15 17:46:52;;;;;;;;;;;9.40;99.90;;;;;;21084300;28;19912;-83
2023/11/15 17:56:53;;;;;;;;;;;9.40;99.90;;;;;;21065719;28;19997;-83
2023/11/15 18:06:54;;;;;;;;;;;9.40;99.90;;;;;;21065995;28;19912;-82
2023/11/15 18:16:55;;;;;;;;;;;9.30;99.90;;;;;;21086116;28;20031;-82
2023/11/15 18:26:57;;;;;;;;;;;9.20;99.90;;;;;;21067749;28;19919;-82
2023/11/15 18:36:58;;;;;;;;;;;9.00;99.90;;;;;;21081837;28;20298;-83
2023/11/15 18:46:59;;;;;;;;;;;8.70;99.90;;;;;;21065347;28;19962;-83
2023/11/15 18:57:00;;;;;;;;;;;8.80;99.90;;;;;;21082968;28;19923;-85
2023/11/15 19:07:00;;;;;;;;;;;8.80;99.90;;;;;;21081788;28;20007;-83
2023/11/15 19:17:02;;;;;;;;;;;8.80;99.90;;;;;;21096391;28;19916;-83
2023/11/15 19:27:03;;;;;;;;;;;8.70;99.90;;;;;;21096259;28;19919;-82
2023/11/15 19:37:04;;;;;;;;;;;8.70;99.90;;;;;;21074768;28;19916;-82
2023/11/15 19:47:04;;;;;;;;;;;8.70;99.90;;;;;;21102094;28;19916;-82
2023/11/15 19:57:05;;;;;;;;;;;8.60;99.90;;;;;;21081280;28;19969;-82
2023/11/15 20:07:07;;;;;;;;;;;8.50;99.90;;;;;;21096164;28;19912;-82
2023/11/15 20:17:08;;;;;;;;;;;8.30;99.90;;;;;;21074000;28;19938;-84
2023/11/15 20:27:09;;;;;;;;;;;8.30;99.90;;;;;;21089321;28;19912;-84
2023/11/15 20:37:10;;;;;;;;;;;8.20;99.90;;;;;;21071758;28;19951;-82
2023/11/15 20:47:11;;;;;;;;;;;8.00;99.90;;;;;;21071380;28;19912;-83
2023/11/15 20:57:12;;;;;;;;;;;7.70;99.90;;;;;;21087014;28;20375;-82
2023/11/15 21:07:13;;;;;;;;;;;7.50;99.90;;;;;;21086196;28;19919;-82
2023/11/15 21:17:14;;;;;;;;;;;7.10;99.90;;;;;;21085351;28;19916;-83
2023/11/15 21:27:14;;;;;;;;;;;6.80;99.90;;;;;;21085116;28;19991;-82
2023/11/15 21:37:15;;;;;;;;;;;6.50;99.90;;;;;;21083463;28;19927;-83
2023/11/15 21:47:18;;;;;;;;;;;6.30;99.90;;;;;;21082744;28;19912;-83
2023/11/15 21:57:19;;;;;;;;;;;6.00;99.90;;;;;;21082012;28;19916;-83
2023/11/15 22:07:19;;;;;;;;;;;6.00;99.90;;;;;;21081572;28;19966;-82
2023/11/15 22:17:20;;;;;;;;;;;5.80;99.90;;;;;;21062385;28;20311;-82
2023/11/15 22:27:21;;;;;;;;;;;5.80;99.90;;;;;;21078382;28;19912;-84
2023/11/15 22:37:21;;;;;;;;;;;5.90;99.90;;;;;;21049854;28;20347;-82
2023/11/15 22:47:22;;;;;;;;;;;5.80;99.90;;;;;;20926733;28;19939;-81
2023/11/15 22:57:23;;;;;;;;;;;5.80;99.90;;;;;;20979339;28;19981;-82
2023/11/15 23:07:23;;;;;;;;;;;5.90;99.90;;;;;;20991339;28;19912;-81
2023/11/15 23:17:25;;;;;;;;;;;6.00;99.90;;;;;;21035621;28;20025;-82
2023/11/15 23:27:25;;;;;;;;;;;5.90;99.90;;;;;;21099070;28;19916;-83
2023/11/15 23:37:26;;;;;;;;;;;6.00;99.90;;;;;;21079186;28;19970;-83
2023/11/15 23:47:27;;;;;;;;;;;6.10;99.90;;;;;;21097340;28;19999;-83
2023/11/15 23:57:28;;;;;;;;;;;6.30;99.90;;;;;;21077590;28;19956;-82
